Latest Weather Observations for Horsham

IDV60801

Issued at 7:31 am EST Saturday 30 April 2016 (issued every 30 minutes, with the page automatically refreshed every 10 minutes)

About weather observations | Map of weather stations | Latest weather observations for VIC | Other Formats
Station Details ID: 079100 Name: HORSHAM AERODROME Lat: -36.67 Lon: 142.17 Height: 133.8 m
Data from the previous 72 hours. | See also: Recent months at Horsham
Date/Time
EST
Temp
°C
App
Temp
°C
Dew
Point
Rel
Hum
%
Delta-T
°C
Wind Press
QNH
hPa
Press
MSL
hPa
Rain
since 9 am
mm
Dir
 
Spd
km/h
Gust
km/h
Spd
kts
Gust
kts
30/07:30am 15.8 14.4 15.6 99 0.1 NNW 17 20 9 11 1013.9 1013.7 2.8
30/07:00am 15.8 14.0 15.6 99 0.1 NNW 19 22 10 12 1013.8 1013.6 2.8
30/06:30am 15.7 13.7 15.5 99 0.1 NNW 20 24 11 13 1013.4 1013.3 2.8
30/06:00am 15.6 13.6 15.4 99 0.1 NNW 20 24 11 13 1013.3 1013.2 2.8
30/05:30am 15.7 13.3 15.5 99 0.1 NNW 22 28 12 15 1013.1 1013.0 2.8
30/05:00am 15.4 12.9 15.2 99 0.1 N 22 28 12 15 1012.6 1012.5 2.8
30/04:30am 15.3 12.4 15.1 99 0.1 N 24 28 13 15 1012.3 1012.2 2.8
30/04:00am 15.3 13.2 15.1 99 0.1 N 20 26 11 14 1012.5 1012.4 2.6
30/03:30am 15.2 12.6 15.0 99 0.1 N 22 28 12 15 1012.7 1012.6 2.6
30/03:00am 15.1 12.5 14.9 99 0.1 NNW 22 28 12 15 1012.9 1012.8 2.6
30/02:30am 15.0 12.4 14.8 99 0.1 NNW 22 28 12 15 1013.0 1012.9 2.6
30/02:00am 15.1 12.5 14.9 99 0.1 N 22 30 12 16 1013.0 1012.9 2.6
30/01:30am 14.9 12.6 14.6 98 0.2 NNW 20 26 11 14 1013.2 1013.1 2.6
30/01:00am 14.6 12.2 14.3 98 0.2 N 20 24 11 13 1013.2 1013.1 2.6
30/12:30am 13.5 10.8 13.0 97 0.3 N 19 22 10 12 1013.3 1013.2 2.6
30/12:16am 13.2 10.4 12.7 97 0.3 N 19 22 10 12 1013.6 1013.4 2.6
30/12:00am 12.9 10.4 12.4 97 0.3 N 17 20 9 11 1013.4 1013.3 2.6
 
Date/Time
EST
Temp
°C
App
Temp
°C
Dew
Point
Rel
Hum
%
Delta-T
°C
Wind Press
QNH
hPa
Press
MSL
hPa
Rain
since 9 am
mm
Dir
 
Spd
km/h
Gust
km/h
Spd
kts
Gust
kts
29/11:30pm 12.6 10.4 12.0 96 0.3 N 15 19 8 10 1013.8 1013.6 2.6
29/11:00pm 12.8 10.2 12.0 95 0.4 N 17 19 9 10 1014.1 1014.0 2.6
29/10:30pm 12.8 10.5 11.9 94 0.5 N 15 19 8 10 1014.2 1014.1 2.6
29/10:00pm 12.9 10.2 11.8 93 0.6 N 17 19 9 10 1014.2 1014.1 2.6
29/09:30pm 13.3 11.1 12.0 92 0.7 N 15 17 8 9 1014.3 1014.2 2.6
29/09:00pm 13.4 11.3 12.3 93 0.6 N 15 19 8 10 1014.0 1013.9 2.6
29/08:30pm 13.5 11.7 12.2 92 0.7 N 13 17 7 9 1013.9 1013.7 2.6
29/08:00pm 14.1 12.0 12.5 90 0.9 NNE 15 17 8 9 1013.8 1013.6 2.6
29/07:30pm 14.4 12.0 12.8 90 0.9 N 17 19 9 10 1013.8 1013.6 2.6
29/07:00pm 14.6 12.3 13.0 90 0.9 N 17 19 9 10 1013.7 1013.5 2.6
29/06:30pm 15.2 13.0 13.4 89 1.0 N 17 19 9 10 1013.4 1013.3 2.6
29/06:00pm 16.3 14.0 14.0 86 1.3 N 19 22 10 12 1012.9 1012.8 2.6
29/05:30pm 17.6 15.2 14.5 82 1.8 N 20 26 11 14 1013.0 1012.9 2.6
29/05:00pm 18.0 15.3 14.5 80 2.0 N 22 28 12 15 1012.7 1012.6 2.6
29/04:30pm 17.8 15.0 14.3 80 2.0 N 22 28 12 15 1012.8 1012.7 2.6
29/04:00pm 17.9 12.8 13.8 77 2.3 N 33 41 18 22 1012.2 1012.1 2.6
29/03:30pm 18.2 13.6 14.5 79 2.1 N 32 39 17 21 1012.3 1012.2 2.6
29/03:00pm 17.6 13.3 14.5 82 1.8 N 30 39 16 21 1012.3 1012.2 2.6
29/02:30pm 17.3 12.7 14.6 84 1.6 N 32 37 17 20 1012.3 1012.2 2.6
29/02:01pm 17.3 12.7 14.6 84 1.6 N 32 37 17 20 1012.4 1012.3 2.6
29/02:00pm 17.4 13.2 14.7 84 1.6 N 30 35 16 19 1012.5 1012.4 2.6
29/01:50pm 17.1 13.3 14.6 85 1.4 N 28 37 15 20 1012.5 1012.4 2.6
29/01:30pm 16.9 13.4 14.5 86 1.4 N 26 33 14 18 1012.7 1012.6 2.6
29/01:00pm 16.2 11.8 14.2 88 1.1 N 30 35 16 19 1012.8 1012.7 2.6
29/12:30pm 16.4 14.2 14.8 90 0.9 NNW 20 26 11 14 1013.7 1013.5 2.6
29/12:00pm 16.2 14.1 14.6 90 0.9 N 19 24 10 13 1014.2 1014.1 2.0
29/11:30am 16.5 14.8 14.7 89 1.0 N 17 20 9 11 1014.5 1014.4 1.4
29/11:00am 16.4 15.1 14.8 90 0.9 N 15 19 8 10 1014.6 1014.5 1.0
29/10:30am 15.9 14.5 14.4 91 0.9 N 15 20 8 11 1014.9 1014.8 1.0
29/10:00am 15.7 14.5 14.1 90 0.9 NNW 13 17 7 9 1015.3 1015.2 0.6
29/09:30am 15.7 13.6 13.5 87 1.2 WNW 17 22 9 12 1015.6 1015.5 0.2
29/09:00am 16.2 13.0 13.1 82 1.7 WNW 22 28 12 15 1015.4 1015.3 0.8
29/08:30am 16.3 12.5 12.5 78 2.1 W 24 30 13 16 1015.0 1014.9 0.8
29/08:00am 16.7 14.0 11.8 73 2.7 W 17 22 9 12 1014.7 1014.6 0.8
29/07:30am 14.0 13.2 11.7 86 1.2 NNE 7 9 4 5 1014.3 1014.2 0.8
29/07:00am 14.7 13.7 11.1 79 1.9 W 7 9 4 5 1014.0 1013.9 0.8
29/06:30am 15.0 15.0 11.2 78 2.0 SW 2 7 1 4 1014.0 1013.9 0.8
29/06:00am 14.4 13.5 11.4 82 1.6 S 7 9 4 5 1013.9 1013.7 0.8
29/05:30am 15.8 14.9 11.2 74 2.5 WNW 7 13 4 7 1014.8 1014.7 0.8
29/05:06am 17.0 11.4 10.1 64 3.7 W 30 48 16 26 1015.5 1015.4 0.8
29/05:00am 16.6 12.6 10.5 67 3.3 NNW 22 48 12 26 1015.6 1015.5 0.8
29/04:59am 16.2 12.6 10.5 69 3.0 N 20 48 11 26 1015.5 1015.4 0.8
29/04:30am 15.7 12.3 10.7 72 2.7 ENE 19 22 10 12 1013.1 1013.0 0.8
29/04:00am 15.2 12.0 11.2 77 2.2 E 19 22 10 12 1012.7 1012.6 0.8
29/03:30am 14.9 13.3 11.7 81 1.7 SE 11 13 6 7 1013.6 1013.4 0.8
29/03:00am 15.6 14.4 11.6 77 2.2 SSW 9 13 5 7 1014.3 1014.2 0.8
29/02:30am 15.8 15.7 10.8 72 2.7 E 2 9 1 5 1014.5 1014.4 0.8
29/02:00am 15.8 13.3 11.0 73 2.6 NE 15 17 8 9 1014.2 1014.1 0.8
29/01:30am 15.7 13.3 11.3 75 2.4 ENE 15 19 8 10 1014.1 1014.0 0.8
29/01:00am 15.2 13.6 11.6 79 1.9 ENE 11 13 6 7 1014.4 1014.3 0.8
29/12:30am 15.2 13.7 12.0 81 1.7 ENE 11 15 6 8 1014.9 1014.8 0.8
29/12:00am 14.5 12.7 12.0 85 1.4 E 13 15 7 8 1015.0 1014.9 0.8
 
Date/Time
EST
Temp
°C
App
Temp
°C
Dew
Point
Rel
Hum
%
Delta-T
°C
Wind Press
QNH
hPa
Press
MSL
hPa
Rain
since 9 am
mm
Dir
 
Spd
km/h
Gust
km/h
Spd
kts
Gust
kts
28/11:30pm 15.0 14.3 12.1 83 1.6 E 7 9 4 5 1015.4 1015.3 0.8
28/11:00pm 15.3 14.1 12.8 85 1.4 ENE 11 13 6 7 1015.8 1015.7 0.8
28/10:30pm 15.2 13.7 13.1 87 1.2 NE 13 17 7 9 1016.1 1016.0 0.8
28/10:00pm 14.8 13.3 13.0 89 1.0 ENE 13 15 7 8 1016.1 1016.0 0.8
28/09:30pm 15.1 12.4 13.0 87 1.2 E 19 20 10 11 1015.7 1015.6 0.8
28/09:00pm 15.7 13.5 13.4 86 1.3 E 17 19 9 10 1016.0 1015.9 0.8
28/08:30pm 16.0 13.8 13.3 84 1.5 E 17 19 9 10 1016.0 1015.9 0.8
28/08:00pm 16.0 15.3 14.2 89 1.0 ESE 11 15 6 8 1016.2 1016.1 0.8
28/07:30pm 16.6 16.2 14.1 85 1.4 E 9 11 5 6 1016.4 1016.3 0.8
28/07:00pm 17.1 16.0 14.2 83 1.7 E 13 15 7 8 1016.2 1016.1 0.6
28/06:30pm 16.9 16.6 14.4 85 1.4 ESE 9 13 5 7 1016.4 1016.3 0.6
28/06:00pm 17.4 16.8 14.5 83 1.7 E 11 13 6 7 1016.5 1016.4 0.6
28/05:30pm 18.2 18.7 15.1 82 1.8 ENE 6 7 3 4 1016.6 1016.5 0.6
28/05:00pm 18.5 18.9 14.8 79 2.2 N 6 9 3 5 1016.6 1016.5 0.6
28/04:30pm 18.6 17.6 14.5 77 2.4 ENE 13 17 7 9 1016.3 1016.2 0.6
28/04:00pm 19.4 19.1 13.3 68 3.5 ESE 7 9 4 5 1016.7 1016.6 0.6
28/03:30pm 19.7 19.1 13.4 67 3.6 SE 9 11 5 6 1016.6 1016.5 0.6
28/03:00pm 19.7 20.0 13.4 67 3.6 SW 4 9 2 5 1017.1 1017.0 0.6
28/02:30pm 19.5 18.7 13.0 66 3.7 WNW 9 11 5 6 1017.3 1017.2 0.6
28/02:00pm 19.4 18.5 12.7 65 3.8 NW 9 13 5 7 1017.3 1017.2 0.6
28/01:30pm 19.4 18.9 12.7 65 3.8 NW 7 11 4 6 1017.3 1017.2 0.6
28/01:00pm 18.8 18.4 12.5 67 3.5 NNW 6 9 3 5 1017.5 1017.4 0.6
28/12:30pm 17.8 16.2 12.7 72 2.9 NE 13 15 7 8 1017.3 1017.2 0.6
28/12:00pm 17.2 15.3 12.9 76 2.4 ENE 15 19 8 10 1017.1 1017.0 0.6
28/11:30am 17.1 15.6 13.0 77 2.3 NE 13 17 7 9 1017.8 1017.7 0.6
28/11:00am 16.7 16.4 12.7 77 2.2 N 6 9 3 5 1018.1 1018.0 0.6
28/10:30am 16.2 16.2 13.5 84 1.5 NNE 6 7 3 4 1018.1 1018.0 0.6
28/10:00am 16.4 15.3 13.1 81 1.8 NW 11 13 6 7 1018.9 1018.8 0.0
28/09:30am 16.7 15.7 13.4 81 1.9 NW 11 15 6 8 1018.6 1018.5 0.0
28/09:00am 16.5 16.0 12.7 78 2.1 NNW 7 9 4 5 1018.1 1018.0 0.2
28/08:30am 15.4 14.4 12.3 82 1.7 NW 9 13 5 7 1017.9 1017.8 -
28/08:00am 15.1 13.5 11.7 80 1.8 NNW 11 13 6 7 1017.4 1017.3 0.2
28/07:30am 15.0 15.6 11.8 81 1.7 CALM 0 6 0 3 1016.9 1016.8 0.0
28/07:00am 15.3 14.5 11.1 76 2.3 NNE 6 9 3 5 1016.7 1016.6 0.0
28/06:30am 16.1 14.6 10.6 70 2.9 NNW 9 11 5 6 1016.6 1016.5 0.0
28/06:00am 16.6 14.2 10.0 65 3.5 WNW 13 17 7 9 1016.2 1016.1 0.0
28/05:30am 17.2 14.4 7.0 51 5.1 NW 11 15 6 8 1016.0 1015.9 0.0
28/05:00am 17.8 13.5 5.1 43 6.1 NNW 17 19 9 10 1015.9 1015.8 0.0
28/04:30am 17.4 13.3 6.3 48 5.5 NNW 17 24 9 13 1015.7 1015.6 0.0
28/04:00am 18.4 13.3 4.2 39 6.8 NNW 20 24 11 13 1015.3 1015.2 0.0
28/03:30am 18.3 13.3 3.8 38 6.9 NNW 19 22 10 12 1015.1 1015.0 0.0
28/03:00am 18.9 13.8 3.9 37 7.1 N 20 24 11 13 1015.0 1014.9 0.0
28/02:30am 19.1 13.5 3.7 36 7.3 N 22 26 12 14 1014.9 1014.8 0.0
28/02:00am 19.3 13.8 3.9 36 7.4 N 22 28 12 15 1014.9 1014.8 0.0
28/01:30am 19.6 14.0 3.7 35 7.6 NNW 22 28 12 15 1014.9 1014.8 0.0
28/01:00am 20.1 14.6 4.2 35 7.7 N 22 28 12 15 1014.8 1014.7 0.0
28/12:30am 20.0 13.8 4.1 35 7.7 N 26 30 14 16 1014.9 1014.8 0.0
28/12:00am 19.6 13.7 4.1 36 7.4 N 24 28 13 15 1015.0 1014.9 0.0
 
Date/Time
EST
Temp
°C
App
Temp
°C
Dew
Point
Rel
Hum
%
Delta-T
°C
Wind Press
QNH
hPa
Press
MSL
hPa
Rain
since 9 am
mm
Dir
 
Spd
km/h
Gust
km/h
Spd
kts
Gust
kts
27/11:30pm 19.3 13.5 4.3 37 7.2 N 24 28 13 15 1015.0 1014.9 0.0
27/11:00pm 19.0 13.6 4.4 38 7.0 N 22 26 12 14 1015.2 1015.1 0.0
27/10:30pm 19.2 13.4 4.6 38 7.1 N 24 28 13 15 1015.0 1014.9 0.0
27/10:00pm 19.5 13.7 4.4 37 7.3 N 24 30 13 16 1015.1 1015.0 0.0
27/09:30pm 19.5 13.3 4.4 37 7.3 N 26 30 14 16 1015.0 1014.9 0.0
27/09:00pm 19.3 14.2 4.3 37 7.2 NNE 20 24 11 13 1015.2 1015.1 0.0
27/08:30pm 20.3 14.5 4.4 35 7.7 N 24 28 13 15 1015.3 1015.2 0.0
27/08:00pm 20.0 14.9 4.1 35 7.7 NNE 20 22 11 12 1015.3 1015.2 0.0
27/07:30pm 20.7 15.6 4.3 34 8.0 N 20 24 11 13 1015.3 1015.2 0.0
27/07:00pm 21.7 16.6 4.3 32 8.5 N 20 24 11 13 1015.2 1015.1 0.0
27/06:30pm 22.7 16.9 4.2 30 9.1 N 24 30 13 16 1015.1 1015.0 0.0
27/06:00pm 23.5 17.7 4.5 29 9.5 N 24 28 13 15 1014.7 1014.6 0.0
27/05:30pm 25.1 18.6 4.8 27 10.3 NNW 28 35 15 19 1014.6 1014.5 0.0
27/05:00pm 26.1 18.0 5.1 26 10.7 NNW 37 44 20 24 1014.4 1014.3 0.0
27/04:30pm 26.4 18.6 4.8 25 11.0 NNW 35 50 19 27 1014.3 1014.2 0.0
27/04:00pm 26.6 18.8 5.0 25 11.1 NNW 35 46 19 25 1014.3 1014.2 0.0
27/03:30pm 26.5 17.9 4.9 25 11.0 NNW 39 50 21 27 1014.3 1014.2 0.0
27/03:00pm 26.7 17.8 5.1 25 11.1 NNW 41 54 22 29 1014.3 1014.2 0.0
27/02:53pm 27.0 18.0 4.7 24 11.4 NNW 41 59 22 32 1014.4 1014.3 0.0
27/02:30pm 27.3 17.8 5.0 24 11.5 NNW 44 57 24 31 1014.5 1014.4 0.0
27/02:00pm 27.2 17.4 5.5 25 11.3 NNW 46 59 25 32 1014.6 1014.5 0.0
27/01:30pm 26.8 17.1 5.7 26 11.0 NNW 46 59 25 32 1014.9 1014.8 0.0
27/01:00pm 26.6 16.5 5.5 26 10.9 NNW 48 59 26 32 1015.2 1015.1 0.0
27/12:50pm 26.5 16.7 5.5 26 10.9 NNW 46 65 25 35 1015.2 1015.1 0.0
27/12:30pm 27.7 18.0 5.9 25 11.4 NNW 46 59 25 32 1015.3 1015.2 0.0
27/12:00pm 26.1 16.4 5.7 27 10.5 NNW 46 57 25 31 1016.1 1016.0 0.0
27/11:30am 25.7 15.2 5.8 28 10.3 NNW 50 59 27 32 1016.3 1016.2 0.0
27/11:00am 25.0 15.8 6.2 30 9.7 NNW 44 56 24 30 1016.9 1016.8 0.0
27/10:30am 24.5 15.5 6.3 31 9.4 NNW 43 54 23 29 1017.3 1017.2 0.0
27/10:00am 21.7 13.0 6.0 36 7.9 NNW 41 50 22 27 1018.1 1018.0 0.0
27/09:30am 21.5 14.0 6.2 37 7.8 N 35 48 19 26 1018.5 1018.4 0.0
27/09:00am 19.4 12.4 6.2 42 6.6 N 32 41 17 22 1018.8 1018.7 0.0
27/08:30am 16.8 10.9 5.7 48 5.4 N 26 33 14 18 1018.9 1018.8 0.0
27/08:00am 15.4 10.5 5.3 51 4.8 N 20 24 11 13 1018.8 1018.7 0.0

Other Formats:

Comma delimited format used in spreadsheet applications
http://www.bom.gov.au/fwo/IDV60801/IDV60801.95839.axf

JavaScript Object Notation format (JSON) in row-major order
http://www.bom.gov.au/fwo/IDV60801/IDV60801.95839.json